Sutherland, Nebraska
Current Conditions -  °F | °C
As of 2:53 AM on Friday 24 Oct 2014 (Local Time) from KLBF Reporting Station
Clear Clear  
Wind Chill: 44°   Ceiling: Unl
Heat Index: 46°   Visibility: 10mi
Dew Point: 44°   Wind: 5mph
Humidity: 93%   Direction: 290°WNW
Pressure: 29.99"   Gusts: NA
Location:  41.16°N, 101.13°W
Report Text: KLBF 240753Z AUTO 29004KT 10SM CLR 08/07 A2999 RMK AO2 SLP144 T00780067
Loading
Personal Weather Stations






























Interactive Weather Map
Tropical Storm Tracking
New forecast layout! Learn more

10-Day Weather Forecast

Advertisements
Track Severe Weather on mobile